Terminal Aerodrome Forecast
Issued by NWS

Home | Current Version | Previous Version | Text Only | Print | Product List | Glossary On
Versions: 1 2 3 4 5 6 7 8 9 10 11 12 13 14 15 16 17 18 19 20 21 22 23 24 25 26
000
FTUS41 KOKX 250231 AAA
TAFHPN
TAF AMD
KHPN 250231Z 2503/2524 05006KT P6SM SCT020 BKN100
      TEMPO 2503/2505 BKN020
     FM250500 06005KT P6SM BKN017 OVC020
      TEMPO 2507/2511 5SM BR BKN008
     FM251300 05005KT P6SM OVC025
     FM252000 05006KT P6SM OVC035
      AMD NOT SKED=

USA.gov is the U.S. government's official web portal to all federal, state and local government web resources and services.